sensor_id;sensor_type;location;lat;lon;timestamp;temperature;humidity
44843;DHT22;31884;52.538;13.820;2022-12-07T00:00:42;4.50;99.90
44843;DHT22;31884;52.538;13.820;2022-12-07T00:03:07;4.40;99.90
44843;DHT22;31884;52.538;13.820;2022-12-07T00:05:33;4.40;99.90
44843;DHT22;31884;52.538;13.820;2022-12-07T00:07:58;4.40;99.90
44843;DHT22;31884;52.538;13.820;2022-12-07T00:10:24;4.40;99.90
44843;DHT22;31884;52.538;13.820;2022-12-07T00:12:49;4.40;99.90
44843;DHT22;31884;52.538;13.820;2022-12-07T00:15:15;4.30;99.90
44843;DHT22;31884;52.538;13.820;2022-12-07T00:17:41;4.30;99.90
44843;DHT22;31884;52.538;13.820;2022-12-07T00:20:07;4.30;99.90
44843;DHT22;31884;52.538;13.820;2022-12-07T00:22:32;4.20;99.90
44843;DHT22;31884;52.538;13.820;2022-12-07T00:24:58;4.20;99.90
44843;DHT22;31884;52.538;13.820;2022-12-07T00:27:23;4.20;99.90
44843;DHT22;31884;52.538;13.820;2022-12-07T00:29:49;4.20;99.90
44843;DHT22;31884;52.538;13.820;2022-12-07T00:32:14;4.20;99.90
44843;DHT22;31884;52.538;13.820;2022-12-07T00:34:40;4.20;99.90
44843;DHT22;31884;52.538;13.820;2022-12-07T00:37:05;4.10;99.90
44843;DHT22;31884;52.538;13.820;2022-12-07T00:39:31;4.00;99.90
44843;DHT22;31884;52.538;13.820;2022-12-07T00:41:56;4.00;99.90
44843;DHT22;31884;52.538;13.820;2022-12-07T00:44:22;3.90;99.90
44843;DHT22;31884;52.538;13.820;2022-12-07T00:46:48;3.90;99.90
44843;DHT22;31884;52.538;13.820;2022-12-07T00:49:13;3.90;99.90
44843;DHT22;31884;52.538;13.820;2022-12-07T00:51:39;3.90;99.90
44843;DHT22;31884;52.538;13.820;2022-12-07T00:54:04;3.90;99.90
44843;DHT22;31884;52.538;13.820;2022-12-07T00:56:30;3.80;99.90
44843;DHT22;31884;52.538;13.820;2022-12-07T00:58:58;3.80;99.90
44843;DHT22;31884;52.538;13.820;2022-12-07T01:01:26;3.80;99.90
44843;DHT22;31884;52.538;13.820;2022-12-07T01:03:52;3.70;99.90
44843;DHT22;31884;52.538;13.820;2022-12-07T01:06:20;3.70;99.90
44843;DHT22;31884;52.538;13.820;2022-12-07T01:08:46;3.70;99.90
44843;DHT22;31884;52.538;13.820;2022-12-07T01:11:14;3.70;99.90
44843;DHT22;31884;52.538;13.820;2022-12-07T01:13:39;3.70;99.90
44843;DHT22;31884;52.538;13.820;2022-12-07T01:16:06;3.60;99.90
44843;DHT22;31884;52.538;13.820;2022-12-07T01:18:34;3.60;99.90
44843;DHT22;31884;52.538;13.820;2022-12-07T01:21:09;3.60;99.90
44843;DHT22;31884;52.538;13.820;2022-12-07T01:23:35;3.60;99.90
44843;DHT22;31884;52.538;13.820;2022-12-07T01:26:04;3.60;99.90
44843;DHT22;31884;52.538;13.820;2022-12-07T01:28:30;3.60;99.90
44843;DHT22;31884;52.538;13.820;2022-12-07T01:31:07;3.50;99.90
44843;DHT22;31884;52.538;13.820;2022-12-07T01:33:35;3.50;99.90
44843;DHT22;31884;52.538;13.820;2022-12-07T01:36:05;3.60;99.90
44843;DHT22;31884;52.538;13.820;2022-12-07T01:38:32;3.50;99.90
44843;DHT22;31884;52.538;13.820;2022-12-07T01:40:58;3.50;99.90
44843;DHT22;31884;52.538;13.820;2022-12-07T01:43:26;3.50;99.90
44843;DHT22;31884;52.538;13.820;2022-12-07T01:45:52;3.50;99.90
44843;DHT22;31884;52.538;13.820;2022-12-07T01:48:24;3.50;99.90
44843;DHT22;31884;52.538;13.820;2022-12-07T01:50:52;3.50;99.90
44843;DHT22;31884;52.538;13.820;2022-12-07T01:53:19;3.50;99.90
44843;DHT22;31884;52.538;13.820;2022-12-07T01:55:47;3.50;99.90
44843;DHT22;31884;52.538;13.820;2022-12-07T01:58:13;3.50;99.90
44843;DHT22;31884;52.538;13.820;2022-12-07T02:00:41;3.40;99.90
44843;DHT22;31884;52.538;13.820;2022-12-07T02:03:16;3.30;99.90
44843;DHT22;31884;52.538;13.820;2022-12-07T02:05:43;3.30;99.90
44843;DHT22;31884;52.538;13.820;2022-12-07T02:08:11;3.30;99.90
44843;DHT22;31884;52.538;13.820;2022-12-07T02:10:37;3.20;99.90
44843;DHT22;31884;52.538;13.820;2022-12-07T02:13:15;3.20;99.90
44843;DHT22;31884;52.538;13.820;2022-12-07T02:15:53;3.20;99.90
44843;DHT22;31884;52.538;13.820;2022-12-07T02:30:10;3.20;99.90
44843;DHT22;31884;52.538;13.820;2022-12-07T02:33:05;3.20;99.90
44843;DHT22;31884;52.538;13.820;2022-12-07T02:38:17;3.20;99.90
44843;DHT22;31884;52.538;13.820;2022-12-07T02:40:51;3.20;99.90
44843;DHT22;31884;52.538;13.820;2022-12-07T02:43:29;3.20;99.90
44843;DHT22;31884;52.538;13.820;2022-12-07T02:46:01;3.20;99.90
44843;DHT22;31884;52.538;13.820;2022-12-07T02:48:28;3.10;99.90
44843;DHT22;31884;52.538;13.820;2022-12-07T02:50:55;3.10;99.90
44843;DHT22;31884;52.538;13.820;2022-12-07T02:53:38;3.10;99.90
44843;DHT22;31884;52.538;13.820;2022-12-07T03:10:29;3.00;99.90
44843;DHT22;31884;52.538;13.820;2022-12-07T03:16:05;2.80;99.90
44843;DHT22;31884;52.538;13.820;2022-12-07T03:18:40;2.80;99.90
44843;DHT22;31884;52.538;13.820;2022-12-07T03:21:12;2.70;99.90
44843;DHT22;31884;52.538;13.820;2022-12-07T03:23:40;2.70;99.90
44843;DHT22;31884;52.538;13.820;2022-12-07T03:26:09;2.60;99.90
44843;DHT22;31884;52.538;13.820;2022-12-07T03:28:42;2.60;99.90
44843;DHT22;31884;52.538;13.820;2022-12-07T03:33:52;2.50;99.90
44843;DHT22;31884;52.538;13.820;2022-12-07T03:36:33;2.40;99.90
44843;DHT22;31884;52.538;13.820;2022-12-07T03:39:17;2.40;99.90
44843;DHT22;31884;52.538;13.820;2022-12-07T03:41:46;2.30;99.90
44843;DHT22;31884;52.538;13.820;2022-12-07T03:44:12;2.20;99.90
44843;DHT22;31884;52.538;13.820;2022-12-07T03:47:13;2.10;99.90
44843;DHT22;31884;52.538;13.820;2022-12-07T03:49:50;2.10;99.90
44843;DHT22;31884;52.538;13.820;2022-12-07T03:52:36;2.00;99.90
44843;DHT22;31884;52.538;13.820;2022-12-07T03:55:25;2.00;99.90
44843;DHT22;31884;52.538;13.820;2022-12-07T03:57:55;2.00;99.90
44843;DHT22;31884;52.538;13.820;2022-12-07T04:00:22;2.00;99.90
44843;DHT22;31884;52.538;13.820;2022-12-07T04:02:47;2.00;99.90
44843;DHT22;31884;52.538;13.820;2022-12-07T04:05:16;2.10;99.90
44843;DHT22;31884;52.538;13.820;2022-12-07T04:07:42;2.10;99.90
44843;DHT22;31884;52.538;13.820;2022-12-07T04:10:07;2.10;99.90
44843;DHT22;31884;52.538;13.820;2022-12-07T04:12:33;2.20;99.90
44843;DHT22;31884;52.538;13.820;2022-12-07T04:14:59;2.20;99.90
44843;DHT22;31884;52.538;13.820;2022-12-07T04:17:24;2.30;99.90
44843;DHT22;31884;52.538;13.820;2022-12-07T04:19:50;2.30;99.90
44843;DHT22;31884;52.538;13.820;2022-12-07T04:22:15;2.30;99.90
44843;DHT22;31884;52.538;13.820;2022-12-07T04:24:41;2.30;99.90
44843;DHT22;31884;52.538;13.820;2022-12-07T04:27:06;2.30;99.90
44843;DHT22;31884;52.538;13.820;2022-12-07T04:29:32;2.30;99.90
44843;DHT22;31884;52.538;13.820;2022-12-07T04:31:57;2.30;99.90
44843;DHT22;31884;52.538;13.820;2022-12-07T04:34:23;2.30;99.90
44843;DHT22;31884;52.538;13.820;2022-12-07T04:36:48;2.40;99.90
44843;DHT22;31884;52.538;13.820;2022-12-07T04:39:26;2.40;99.90
44843;DHT22;31884;52.538;13.820;2022-12-07T04:41:52;2.40;99.90
44843;DHT22;31884;52.538;13.820;2022-12-07T04:44:18;2.40;99.90
44843;DHT22;31884;52.538;13.820;2022-12-07T04:46:44;2.40;99.90
44843;DHT22;31884;52.538;13.820;2022-12-07T04:49:11;2.40;99.90
44843;DHT22;31884;52.538;13.820;2022-12-07T04:51:38;2.40;99.90
44843;DHT22;31884;52.538;13.820;2022-12-07T04:54:04;2.30;99.90
44843;DHT22;31884;52.538;13.820;2022-12-07T04:56:29;2.30;99.90
44843;DHT22;31884;52.538;13.820;2022-12-07T04:58:55;2.30;99.90
44843;DHT22;31884;52.538;13.820;2022-12-07T05:01:21;2.30;99.90
44843;DHT22;31884;52.538;13.820;2022-12-07T05:03:47;2.40;99.90
44843;DHT22;31884;52.538;13.820;2022-12-07T05:06:13;2.30;99.90
44843;DHT22;31884;52.538;13.820;2022-12-07T05:08:40;2.30;99.90
44843;DHT22;31884;52.538;13.820;2022-12-07T05:11:06;2.30;99.90
44843;DHT22;31884;52.538;13.820;2022-12-07T05:13:32;2.30;99.90
44843;DHT22;31884;52.538;13.820;2022-12-07T05:15:58;2.40;99.90
44843;DHT22;31884;52.538;13.820;2022-12-07T05:18:23;2.40;99.90
44843;DHT22;31884;52.538;13.820;2022-12-07T05:20:49;2.40;99.90
44843;DHT22;31884;52.538;13.820;2022-12-07T05:23:16;2.40;99.90
44843;DHT22;31884;52.538;13.820;2022-12-07T05:25:42;2.40;99.90
44843;DHT22;31884;52.538;13.820;2022-12-07T05:28:07;2.40;99.90
44843;DHT22;31884;52.538;13.820;2022-12-07T05:30:33;2.40;99.90
44843;DHT22;31884;52.538;13.820;2022-12-07T05:32:59;2.40;99.90
44843;DHT22;31884;52.538;13.820;2022-12-07T05:35:24;2.40;99.90
44843;DHT22;31884;52.538;13.820;2022-12-07T05:37:49;2.40;99.90
44843;DHT22;31884;52.538;13.820;2022-12-07T05:40:16;2.40;99.90
44843;DHT22;31884;52.538;13.820;2022-12-07T05:42:42;2.40;99.90
44843;DHT22;31884;52.538;13.820;2022-12-07T05:45:09;2.40;99.90
44843;DHT22;31884;52.538;13.820;2022-12-07T05:47:35;2.40;99.90
44843;DHT22;31884;52.538;13.820;2022-12-07T05:50:01;2.40;99.90
44843;DHT22;31884;52.538;13.820;2022-12-07T05:52:27;2.50;99.90
44843;DHT22;31884;52.538;13.820;2022-12-07T05:54:52;2.40;99.90
44843;DHT22;31884;52.538;13.820;2022-12-07T05:57:18;2.40;99.90
44843;DHT22;31884;52.538;13.820;2022-12-07T05:59:44;2.40;99.90
44843;DHT22;31884;52.538;13.820;2022-12-07T06:02:12;2.40;99.90
44843;DHT22;31884;52.538;13.820;2022-12-07T06:04:40;2.40;99.90
44843;DHT22;31884;52.538;13.820;2022-12-07T06:07:07;2.40;99.90
44843;DHT22;31884;52.538;13.820;2022-12-07T06:09:33;2.40;99.90
44843;DHT22;31884;52.538;13.820;2022-12-07T06:11:59;2.40;99.90
44843;DHT22;31884;52.538;13.820;2022-12-07T06:14:44;2.40;99.90
44843;DHT22;31884;52.538;13.820;2022-12-07T06:17:11;2.50;99.90
44843;DHT22;31884;52.538;13.820;2022-12-07T06:19:37;2.50;99.90
44843;DHT22;31884;52.538;13.820;2022-12-07T06:22:03;2.50;99.90
44843;DHT22;31884;52.538;13.820;2022-12-07T06:24:30;2.50;99.90
44843;DHT22;31884;52.538;13.820;2022-12-07T06:26:56;2.50;99.90
44843;DHT22;31884;52.538;13.820;2022-12-07T06:29:22;2.50;99.90
44843;DHT22;31884;52.538;13.820;2022-12-07T06:31:47;2.60;99.90
44843;DHT22;31884;52.538;13.820;2022-12-07T06:34:16;2.60;99.90
44843;DHT22;31884;52.538;13.820;2022-12-07T06:36:42;2.60;99.90
44843;DHT22;31884;52.538;13.820;2022-12-07T06:39:08;2.60;99.90
44843;DHT22;31884;52.538;13.820;2022-12-07T06:41:35;2.70;99.90
44843;DHT22;31884;52.538;13.820;2022-12-07T06:44:02;2.70;99.90
44843;DHT22;31884;52.538;13.820;2022-12-07T06:46:27;2.70;99.90
44843;DHT22;31884;52.538;13.820;2022-12-07T06:48:53;2.80;99.90
44843;DHT22;31884;52.538;13.820;2022-12-07T06:51:18;2.80;99.90
44843;DHT22;31884;52.538;13.820;2022-12-07T06:53:44;2.80;99.90
44843;DHT22;31884;52.538;13.820;2022-12-07T06:56:10;2.80;99.90
44843;DHT22;31884;52.538;13.820;2022-12-07T06:58:35;2.90;99.90
44843;DHT22;31884;52.538;13.820;2022-12-07T07:01:01;2.90;99.90
44843;DHT22;31884;52.538;13.820;2022-12-07T07:03:27;2.90;99.90
44843;DHT22;31884;52.538;13.820;2022-12-07T07:05:52;2.90;99.90
44843;DHT22;31884;52.538;13.820;2022-12-07T07:08:18;2.90;99.90
44843;DHT22;31884;52.538;13.820;2022-12-07T07:10:43;2.90;99.90
44843;DHT22;31884;52.538;13.820;2022-12-07T07:13:09;2.90;99.90
44843;DHT22;31884;52.538;13.820;2022-12-07T07:15:34;3.00;99.90
44843;DHT22;31884;52.538;13.820;2022-12-07T07:18:02;3.00;99.90
44843;DHT22;31884;52.538;13.820;2022-12-07T07:20:28;3.00;99.90
44843;DHT22;31884;52.538;13.820;2022-12-07T07:22:54;3.00;99.90
44843;DHT22;31884;52.538;13.820;2022-12-07T07:25:20;3.00;99.90
44843;DHT22;31884;52.538;13.820;2022-12-07T07:27:46;3.00;99.90
44843;DHT22;31884;52.538;13.820;2022-12-07T07:30:11;3.10;99.90
44843;DHT22;31884;52.538;13.820;2022-12-07T07:32:37;3.10;99.90
44843;DHT22;31884;52.538;13.820;2022-12-07T07:35:03;3.10;99.90
44843;DHT22;31884;52.538;13.820;2022-12-07T07:37:28;3.20;99.90
44843;DHT22;31884;52.538;13.820;2022-12-07T07:39:54;3.20;99.90
44843;DHT22;31884;52.538;13.820;2022-12-07T07:42:19;3.20;99.90
44843;DHT22;31884;52.538;13.820;2022-12-07T07:44:45;3.30;99.90
44843;DHT22;31884;52.538;13.820;2022-12-07T07:47:10;3.30;99.90
44843;DHT22;31884;52.538;13.820;2022-12-07T07:49:36;3.40;99.90
44843;DHT22;31884;52.538;13.820;2022-12-07T07:52:01;3.40;99.90
44843;DHT22;31884;52.538;13.820;2022-12-07T07:54:27;3.50;99.90
44843;DHT22;31884;52.538;13.820;2022-12-07T07:56:53;3.50;99.90
44843;DHT22;31884;52.538;13.820;2022-12-07T07:59:18;3.50;99.90
44843;DHT22;31884;52.538;13.820;2022-12-07T08:01:44;3.60;99.90
44843;DHT22;31884;52.538;13.820;2022-12-07T08:04:09;3.70;99.90
44843;DHT22;31884;52.538;13.820;2022-12-07T08:06:35;3.70;99.90
44843;DHT22;31884;52.538;13.820;2022-12-07T08:09:01;3.80;99.90
44843;DHT22;31884;52.538;13.820;2022-12-07T08:11:27;3.80;99.90
44843;DHT22;31884;52.538;13.820;2022-12-07T08:13:52;3.80;99.90
44843;DHT22;31884;52.538;13.820;2022-12-07T08:16:18;3.90;99.90
44843;DHT22;31884;52.538;13.820;2022-12-07T08:18:43;3.90;99.90
44843;DHT22;31884;52.538;13.820;2022-12-07T08:21:14;3.90;99.90
44843;DHT22;31884;52.538;13.820;2022-12-07T08:23:41;4.00;99.90
44843;DHT22;31884;52.538;13.820;2022-12-07T08:26:11;4.00;99.90
44843;DHT22;31884;52.538;13.820;2022-12-07T08:28:37;4.10;99.90
44843;DHT22;31884;52.538;13.820;2022-12-07T08:31:06;4.10;99.90
44843;DHT22;31884;52.538;13.820;2022-12-07T08:33:32;4.20;99.90
44843;DHT22;31884;52.538;13.820;2022-12-07T08:36:07;4.20;99.90
44843;DHT22;31884;52.538;13.820;2022-12-07T08:38:34;4.30;99.90
44843;DHT22;31884;52.538;13.820;2022-12-07T08:41:00;4.30;99.90
44843;DHT22;31884;52.538;13.820;2022-12-07T08:43:26;4.30;99.90
44843;DHT22;31884;52.538;13.820;2022-12-07T08:46:06;4.30;99.90
44843;DHT22;31884;52.538;13.820;2022-12-07T08:48:35;4.30;99.90
44843;DHT22;31884;52.538;13.820;2022-12-07T08:51:01;4.40;99.90
44843;DHT22;31884;52.538;13.820;2022-12-07T08:53:28;4.40;99.90
44843;DHT22;31884;52.538;13.820;2022-12-07T08:55:55;4.50;99.90
44843;DHT22;31884;52.538;13.820;2022-12-07T08:58:21;4.50;99.90
44843;DHT22;31884;52.538;13.820;2022-12-07T09:00:47;4.60;99.90
44843;DHT22;31884;52.538;13.820;2022-12-07T09:03:12;4.60;99.90
44843;DHT22;31884;52.538;13.820;2022-12-07T09:05:38;4.70;99.90
44843;DHT22;31884;52.538;13.820;2022-12-07T09:08:03;4.70;99.90
44843;DHT22;31884;52.538;13.820;2022-12-07T09:10:29;4.80;99.90
44843;DHT22;31884;52.538;13.820;2022-12-07T09:12:55;4.80;99.90
44843;DHT22;31884;52.538;13.820;2022-12-07T09:15:20;4.90;99.90
44843;DHT22;31884;52.538;13.820;2022-12-07T09:17:46;4.90;99.90
44843;DHT22;31884;52.538;13.820;2022-12-07T09:20:12;4.90;99.90
44843;DHT22;31884;52.538;13.820;2022-12-07T09:22:37;5.00;99.90
44843;DHT22;31884;52.538;13.820;2022-12-07T09:25:03;5.00;99.90
44843;DHT22;31884;52.538;13.820;2022-12-07T09:27:30;5.00;99.90
44843;DHT22;31884;52.538;13.820;2022-12-07T09:29:55;5.00;99.90
44843;DHT22;31884;52.538;13.820;2022-12-07T09:32:21;5.10;99.90
44843;DHT22;31884;52.538;13.820;2022-12-07T09:34:46;5.00;99.90
44843;DHT22;31884;52.538;13.820;2022-12-07T09:37:12;5.00;99.90
44843;DHT22;31884;52.538;13.820;2022-12-07T09:39:38;4.90;99.90
44843;DHT22;31884;52.538;13.820;2022-12-07T09:42:04;5.00;99.90
44843;DHT22;31884;52.538;13.820;2022-12-07T09:44:31;4.90;99.90
44843;DHT22;31884;52.538;13.820;2022-12-07T09:46:57;4.90;99.90
44843;DHT22;31884;52.538;13.820;2022-12-07T09:49:24;4.90;99.90
44843;DHT22;31884;52.538;13.820;2022-12-07T09:54:44;4.90;99.90
44843;DHT22;31884;52.538;13.820;2022-12-07T09:57:11;4.80;99.90
44843;DHT22;31884;52.538;13.820;2022-12-07T09:59:40;4.80;99.90
44843;DHT22;31884;52.538;13.820;2022-12-07T10:02:26;4.80;99.90
44843;DHT22;31884;52.538;13.820;2022-12-07T10:04:55;4.70;99.90
44843;DHT22;31884;52.538;13.820;2022-12-07T10:07:22;4.80;99.90
44843;DHT22;31884;52.538;13.820;2022-12-07T10:09:47;4.80;99.90
44843;DHT22;31884;52.538;13.820;2022-12-07T10:12:14;4.90;99.90
44843;DHT22;31884;52.538;13.820;2022-12-07T10:15:09;4.90;99.90
44843;DHT22;31884;52.538;13.820;2022-12-07T10:17:39;5.00;99.90
44843;DHT22;31884;52.538;13.820;2022-12-07T10:20:23;5.00;99.90
44843;DHT22;31884;52.538;13.820;2022-12-07T10:23:05;5.00;99.90
44843;DHT22;31884;52.538;13.820;2022-12-07T10:25:38;5.00;99.90
44843;DHT22;31884;52.538;13.820;2022-12-07T10:28:16;5.00;99.90
44843;DHT22;31884;52.538;13.820;2022-12-07T10:31:00;4.90;99.90
44843;DHT22;31884;52.538;13.820;2022-12-07T10:33:35;4.90;99.90
44843;DHT22;31884;52.538;13.820;2022-12-07T10:36:17;4.90;99.90
44843;DHT22;31884;52.538;13.820;2022-12-07T10:38:48;4.80;99.90
44843;DHT22;31884;52.538;13.820;2022-12-07T10:41:14;4.70;99.90
44843;DHT22;31884;52.538;13.820;2022-12-07T10:43:49;4.70;99.90
44843;DHT22;31884;52.538;13.820;2022-12-07T10:49:49;4.70;99.90
44843;DHT22;31884;52.538;13.820;2022-12-07T10:52:26;4.80;99.90
44843;DHT22;31884;52.538;13.820;2022-12-07T10:55:08;4.80;99.90
44843;DHT22;31884;52.538;13.820;2022-12-07T10:57:51;4.80;99.90
44843;DHT22;31884;52.538;13.820;2022-12-07T11:00:25;4.80;99.90
44843;DHT22;31884;52.538;13.820;2022-12-07T11:03:17;4.70;99.90
44843;DHT22;31884;52.538;13.820;2022-12-07T11:05:54;4.60;99.90
44843;DHT22;31884;52.538;13.820;2022-12-07T11:11:20;4.50;99.90
44843;DHT22;31884;52.538;13.820;2022-12-07T11:14:13;4.40;99.90
44843;DHT22;31884;52.538;13.820;2022-12-07T11:17:08;4.50;99.90
44843;DHT22;31884;52.538;13.820;2022-12-07T11:20:05;4.50;99.90
44843;DHT22;31884;52.538;13.820;2022-12-07T11:23:03;4.40;99.90
44843;DHT22;31884;52.538;13.820;2022-12-07T11:25:35;4.40;99.90
44843;DHT22;31884;52.538;13.820;2022-12-07T11:28:31;4.50;99.90
44843;DHT22;31884;52.538;13.820;2022-12-07T11:31:18;4.50;99.90
44843;DHT22;31884;52.538;13.820;2022-12-07T11:33:54;4.50;99.90
44843;DHT22;31884;52.538;13.820;2022-12-07T11:36:46;4.50;99.90
44843;DHT22;31884;52.538;13.820;2022-12-07T11:41:56;4.50;99.90
44843;DHT22;31884;52.538;13.820;2022-12-07T11:44:53;4.60;99.90
44843;DHT22;31884;52.538;13.820;2022-12-07T11:47:22;4.70;99.90
44843;DHT22;31884;52.538;13.820;2022-12-07T11:49:56;4.70;99.90
44843;DHT22;31884;52.538;13.820;2022-12-07T11:52:47;4.70;99.90
44843;DHT22;31884;52.538;13.820;2022-12-07T11:58:01;4.60;99.90
44843;DHT22;31884;52.538;13.820;2022-12-07T12:00:28;4.60;99.90
44843;DHT22;31884;52.538;13.820;2022-12-07T12:03:09;4.70;99.90
44843;DHT22;31884;52.538;13.820;2022-12-07T12:05:36;4.60;99.90
44843;DHT22;31884;52.538;13.820;2022-12-07T12:08:31;4.60;99.90
44843;DHT22;31884;52.538;13.820;2022-12-07T12:11:00;4.70;99.90
44843;DHT22;31884;52.538;13.820;2022-12-07T12:13:55;4.70;99.90
44843;DHT22;31884;52.538;13.820;2022-12-07T12:17:19;4.70;99.90
44843;DHT22;31884;52.538;13.820;2022-12-07T12:19:44;4.80;99.90
44843;DHT22;31884;52.538;13.820;2022-12-07T12:22:22;4.70;99.90
44843;DHT22;31884;52.538;13.820;2022-12-07T12:24:53;4.70;99.90
44843;DHT22;31884;52.538;13.820;2022-12-07T12:27:29;4.70;99.90
44843;DHT22;31884;52.538;13.820;2022-12-07T12:29:58;4.70;99.90
44843;DHT22;31884;52.538;13.820;2022-12-07T12:32:40;4.70;99.90
44843;DHT22;31884;52.538;13.820;2022-12-07T12:37:54;4.80;99.90
44843;DHT22;31884;52.538;13.820;2022-12-07T12:42:50;4.80;99.90
44843;DHT22;31884;52.538;13.820;2022-12-07T12:47:54;4.90;99.90
44843;DHT22;31884;52.538;13.820;2022-12-07T12:50:36;4.90;99.90
44843;DHT22;31884;52.538;13.820;2022-12-07T12:53:22;4.90;99.90
44843;DHT22;31884;52.538;13.820;2022-12-07T12:56:11;4.90;99.90
44843;DHT22;31884;52.538;13.820;2022-12-07T12:58:40;4.90;99.90
44843;DHT22;31884;52.538;13.820;2022-12-07T13:01:36;4.90;99.90
44843;DHT22;31884;52.538;13.820;2022-12-07T13:04:12;4.90;99.90
44843;DHT22;31884;52.538;13.820;2022-12-07T13:06:41;4.90;99.90
44843;DHT22;31884;52.538;13.820;2022-12-07T13:09:22;4.90;99.90
44843;DHT22;31884;52.538;13.820;2022-12-07T13:11:48;5.00;99.90
44843;DHT22;31884;52.538;13.820;2022-12-07T13:17:03;5.00;99.90
44843;DHT22;31884;52.538;13.820;2022-12-07T13:25:07;4.90;99.90
44843;DHT22;31884;52.538;13.820;2022-12-07T13:27:37;4.90;99.90
44843;DHT22;31884;52.538;13.820;2022-12-07T13:30:16;4.80;99.90
44843;DHT22;31884;52.538;13.820;2022-12-07T13:32:43;4.80;99.90
44843;DHT22;31884;52.538;13.820;2022-12-07T13:35:33;4.80;99.90
44843;DHT22;31884;52.538;13.820;2022-12-07T13:38:01;4.80;99.90
44843;DHT22;31884;52.538;13.820;2022-12-07T13:40:27;4.80;99.90
44843;DHT22;31884;52.538;13.820;2022-12-07T13:43:00;4.80;99.90
44843;DHT22;31884;52.538;13.820;2022-12-07T13:45:32;4.70;99.90
44843;DHT22;31884;52.538;13.820;2022-12-07T13:50:55;4.70;99.90
44843;DHT22;31884;52.538;13.820;2022-12-07T13:53:22;4.70;99.90
44843;DHT22;31884;52.538;13.820;2022-12-07T13:55:47;4.60;99.90
44843;DHT22;31884;52.538;13.820;2022-12-07T13:58:13;4.50;99.90
44843;DHT22;31884;52.538;13.820;2022-12-07T14:00:40;4.50;99.90
44843;DHT22;31884;52.538;13.820;2022-12-07T14:05:39;4.50;99.90
44843;DHT22;31884;52.538;13.820;2022-12-07T14:08:22;4.50;99.90
44843;DHT22;31884;52.538;13.820;2022-12-07T14:13:32;4.50;99.90
44843;DHT22;31884;52.538;13.820;2022-12-07T14:16:00;4.50;99.90
44843;DHT22;31884;52.538;13.820;2022-12-07T14:18:41;4.50;99.90
44843;DHT22;31884;52.538;13.820;2022-12-07T14:21:16;4.50;99.90
44843;DHT22;31884;52.538;13.820;2022-12-07T14:23:43;4.50;99.90
44843;DHT22;31884;52.538;13.820;2022-12-07T14:26:15;4.40;99.90
44843;DHT22;31884;52.538;13.820;2022-12-07T14:28:43;4.40;99.90
44843;DHT22;31884;52.538;13.820;2022-12-07T14:31:17;4.30;99.90
44843;DHT22;31884;52.538;13.820;2022-12-07T14:33:43;4.30;99.90
44843;DHT22;31884;52.538;13.820;2022-12-07T14:36:10;4.20;99.90
44843;DHT22;31884;52.538;13.820;2022-12-07T14:38:36;4.20;99.90
44843;DHT22;31884;52.538;13.820;2022-12-07T14:41:04;4.10;99.90
44843;DHT22;31884;52.538;13.820;2022-12-07T14:43:48;4.00;99.90
44843;DHT22;31884;52.538;13.820;2022-12-07T14:46:13;4.00;99.90
44843;DHT22;31884;52.538;13.820;2022-12-07T14:48:40;4.00;99.90
44843;DHT22;31884;52.538;13.820;2022-12-07T14:51:07;4.00;99.90
44843;DHT22;31884;52.538;13.820;2022-12-07T14:53:37;4.00;99.90
44843;DHT22;31884;52.538;13.820;2022-12-07T14:56:04;4.00;99.90
44843;DHT22;31884;52.538;13.820;2022-12-07T14:58:33;3.90;99.90
44843;DHT22;31884;52.538;13.820;2022-12-07T15:00:59;3.90;99.90
44843;DHT22;31884;52.538;13.820;2022-12-07T15:03:25;3.90;99.90
44843;DHT22;31884;52.538;13.820;2022-12-07T15:05:50;3.90;99.90
44843;DHT22;31884;52.538;13.820;2022-12-07T15:08:16;3.90;99.90
44843;DHT22;31884;52.538;13.820;2022-12-07T15:10:41;3.90;99.90
44843;DHT22;31884;52.538;13.820;2022-12-07T15:13:08;3.80;99.90
44843;DHT22;31884;52.538;13.820;2022-12-07T15:15:53;3.60;99.90
44843;DHT22;31884;52.538;13.820;2022-12-07T15:18:20;3.40;99.90
44843;DHT22;31884;52.538;13.820;2022-12-07T15:20:46;3.30;99.90
44843;DHT22;31884;52.538;13.820;2022-12-07T15:23:12;3.20;99.90
44843;DHT22;31884;52.538;13.820;2022-12-07T15:25:42;3.10;99.90
44843;DHT22;31884;52.538;13.820;2022-12-07T15:28:07;2.90;99.90
44843;DHT22;31884;52.538;13.820;2022-12-07T15:30:33;2.90;99.90
44843;DHT22;31884;52.538;13.820;2022-12-07T15:32:58;2.90;99.90
44843;DHT22;31884;52.538;13.820;2022-12-07T15:35:24;2.90;99.90
44843;DHT22;31884;52.538;13.820;2022-12-07T15:37:49;2.90;99.90
44843;DHT22;31884;52.538;13.820;2022-12-07T15:40:15;2.90;99.90
44843;DHT22;31884;52.538;13.820;2022-12-07T15:42:40;2.90;99.90
44843;DHT22;31884;52.538;13.820;2022-12-07T15:45:07;2.90;99.90
44843;DHT22;31884;52.538;13.820;2022-12-07T15:47:39;2.90;99.90
44843;DHT22;31884;52.538;13.820;2022-12-07T15:50:09;2.90;99.90
44843;DHT22;31884;52.538;13.820;2022-12-07T15:52:35;2.90;99.90
44843;DHT22;31884;52.538;13.820;2022-12-07T15:55:01;3.00;99.90
44843;DHT22;31884;52.538;13.820;2022-12-07T15:57:29;3.00;99.90
44843;DHT22;31884;52.538;13.820;2022-12-07T15:59:54;3.10;99.90
44843;DHT22;31884;52.538;13.820;2022-12-07T16:02:20;3.10;99.90
44843;DHT22;31884;52.538;13.820;2022-12-07T16:04:45;3.20;99.90
44843;DHT22;31884;52.538;13.820;2022-12-07T16:07:11;3.20;99.90
44843;DHT22;31884;52.538;13.820;2022-12-07T16:09:39;3.20;99.90
44843;DHT22;31884;52.538;13.820;2022-12-07T16:12:05;3.20;99.90
44843;DHT22;31884;52.538;13.820;2022-12-07T16:14:30;3.20;99.90
44843;DHT22;31884;52.538;13.820;2022-12-07T16:16:58;3.30;99.90
44843;DHT22;31884;52.538;13.820;2022-12-07T16:19:24;3.30;99.90
44843;DHT22;31884;52.538;13.820;2022-12-07T16:21:49;3.30;99.90
44843;DHT22;31884;52.538;13.820;2022-12-07T16:24:15;3.30;99.90
44843;DHT22;31884;52.538;13.820;2022-12-07T16:26:41;3.30;99.90
44843;DHT22;31884;52.538;13.820;2022-12-07T16:29:09;3.40;99.90
44843;DHT22;31884;52.538;13.820;2022-12-07T16:31:35;3.30;99.90
44843;DHT22;31884;52.538;13.820;2022-12-07T16:34:00;3.00;99.90
44843;DHT22;31884;52.538;13.820;2022-12-07T16:36:26;2.70;99.90
44843;DHT22;31884;52.538;13.820;2022-12-07T16:38:53;2.50;99.90
44843;DHT22;31884;52.538;13.820;2022-12-07T16:41:18;2.30;99.90
44843;DHT22;31884;52.538;13.820;2022-12-07T16:43:44;2.20;99.90
44843;DHT22;31884;52.538;13.820;2022-12-07T16:46:09;2.10;99.90
44843;DHT22;31884;52.538;13.820;2022-12-07T16:48:38;2.10;99.90
44843;DHT22;31884;52.538;13.820;2022-12-07T16:51:10;2.10;99.90
44843;DHT22;31884;52.538;13.820;2022-12-07T16:53:36;2.10;99.90
44843;DHT22;31884;52.538;13.820;2022-12-07T16:56:02;2.10;99.90
44843;DHT22;31884;52.538;13.820;2022-12-07T16:58:28;2.00;99.90